Terminal Aerodrome Forecast
Issued by NWS Cleveland, OH

Home | Current Version | Previous Version | Text Only | Print | Product List | Glossary Off
Versions: 1 2 3 4 5 6 7 8 9 10 11 12 13 14 15 16 17 18 19 20 21 22 23 24 25 26 27 28

000
FTUS41 KCLE 010300 AAB
TAFCLE
TAF AMD
KCLE 010311Z 0103/0206 01005KT P6SM VCSH SCT005 OVC060
      TEMPO 0103/0105 6SM -SHRA OVC017
     FM010600 35004KT P6SM SCT015 BKN070
     FM011000 01004KT 4SM BR BKN250
     FM011200 35008KT P6SM SCT060
     FM020100 24003KT P6SM SKC=

USA.gov is the U.S. government's official web portal to all federal, state and local government web resources and services.